sensor_id;sensor_type;location;lat;lon;timestamp;temperature;humidity
8565;DHT22;4320;51.498;6.556;2024-03-02T00:02:12;8.90;1.00
8565;DHT22;4320;51.498;6.556;2024-03-02T00:04:37;8.90;1.00
8565;DHT22;4320;51.498;6.556;2024-03-02T00:07:04;8.90;1.00
8565;DHT22;4320;51.498;6.556;2024-03-02T00:09:29;8.90;1.00
8565;DHT22;4320;51.498;6.556;2024-03-02T00:11:55;8.80;1.00
8565;DHT22;4320;51.498;6.556;2024-03-02T00:14:22;8.80;1.00
8565;DHT22;4320;51.498;6.556;2024-03-02T00:16:50;8.80;1.00
8565;DHT22;4320;51.498;6.556;2024-03-02T00:19:16;8.90;1.00
8565;DHT22;4320;51.498;6.556;2024-03-02T00:21:42;8.90;1.00
8565;DHT22;4320;51.498;6.556;2024-03-02T00:24:31;8.90;1.00
8565;DHT22;4320;51.498;6.556;2024-03-02T00:26:58;8.90;1.00
8565;DHT22;4320;51.498;6.556;2024-03-02T00:29:24;8.90;1.00
8565;DHT22;4320;51.498;6.556;2024-03-02T00:31:50;9.10;1.00
8565;DHT22;4320;51.498;6.556;2024-03-02T00:34:17;9.00;1.00
8565;DHT22;4320;51.498;6.556;2024-03-02T00:36:43;9.00;1.00
8565;DHT22;4320;51.498;6.556;2024-03-02T00:39:12;9.20;1.00
8565;DHT22;4320;51.498;6.556;2024-03-02T00:41:41;9.20;1.00
8565;DHT22;4320;51.498;6.556;2024-03-02T00:44:11;9.20;1.00
8565;DHT22;4320;51.498;6.556;2024-03-02T00:46:38;9.30;1.00
8565;DHT22;4320;51.498;6.556;2024-03-02T00:49:25;9.30;1.00
8565;DHT22;4320;51.498;6.556;2024-03-02T00:51:53;9.40;1.00
8565;DHT22;4320;51.498;6.556;2024-03-02T00:54:26;9.50;1.00
8565;DHT22;4320;51.498;6.556;2024-03-02T00:56:52;9.50;1.00
8565;DHT22;4320;51.498;6.556;2024-03-02T00:59:20;9.40;1.00
8565;DHT22;4320;51.498;6.556;2024-03-02T01:01:47;9.50;1.00
8565;DHT22;4320;51.498;6.556;2024-03-02T01:04:12;9.60;1.00
8565;DHT22;4320;51.498;6.556;2024-03-02T01:06:39;9.60;1.00
8565;DHT22;4320;51.498;6.556;2024-03-02T01:09:05;9.60;1.00
8565;DHT22;4320;51.498;6.556;2024-03-02T01:11:31;9.60;1.00
8565;DHT22;4320;51.498;6.556;2024-03-02T01:13:56;9.70;1.00
8565;DHT22;4320;51.498;6.556;2024-03-02T01:16:22;9.60;1.00
8565;DHT22;4320;51.498;6.556;2024-03-02T01:18:48;9.50;1.00
8565;DHT22;4320;51.498;6.556;2024-03-02T01:21:15;9.50;1.00
8565;DHT22;4320;51.498;6.556;2024-03-02T01:23:40;9.60;1.00
8565;DHT22;4320;51.498;6.556;2024-03-02T01:26:06;9.70;1.00
8565;DHT22;4320;51.498;6.556;2024-03-02T01:28:32;9.70;1.00
8565;DHT22;4320;51.498;6.556;2024-03-02T01:30:58;9.70;1.00
8565;DHT22;4320;51.498;6.556;2024-03-02T01:33:24;9.60;1.00
8565;DHT22;4320;51.498;6.556;2024-03-02T01:35:49;9.70;1.00
8565;DHT22;4320;51.498;6.556;2024-03-02T01:38:15;9.60;1.00
8565;DHT22;4320;51.498;6.556;2024-03-02T01:40:42;9.70;1.00
8565;DHT22;4320;51.498;6.556;2024-03-02T01:43:09;9.70;1.00
8565;DHT22;4320;51.498;6.556;2024-03-02T01:45:35;9.80;1.00
8565;DHT22;4320;51.498;6.556;2024-03-02T01:48:04;9.80;1.00
8565;DHT22;4320;51.498;6.556;2024-03-02T01:50:33;10.00;1.00
8565;DHT22;4320;51.498;6.556;2024-03-02T01:53:00;10.00;1.00
8565;DHT22;4320;51.498;6.556;2024-03-02T01:55:26;10.00;1.00
8565;DHT22;4320;51.498;6.556;2024-03-02T01:57:54;9.90;1.00
8565;DHT22;4320;51.498;6.556;2024-03-02T02:00:20;10.00;1.00
8565;DHT22;4320;51.498;6.556;2024-03-02T02:02:49;10.10;1.00
8565;DHT22;4320;51.498;6.556;2024-03-02T02:05:15;10.10;1.00
8565;DHT22;4320;51.498;6.556;2024-03-02T02:07:41;10.20;1.00
8565;DHT22;4320;51.498;6.556;2024-03-02T02:10:08;10.10;1.00
8565;DHT22;4320;51.498;6.556;2024-03-02T02:12:35;10.20;1.00
8565;DHT22;4320;51.498;6.556;2024-03-02T02:15:01;10.10;1.00
8565;DHT22;4320;51.498;6.556;2024-03-02T02:17:26;10.10;1.00
8565;DHT22;4320;51.498;6.556;2024-03-02T02:19:52;10.10;1.00
8565;DHT22;4320;51.498;6.556;2024-03-02T02:22:18;10.30;1.00
8565;DHT22;4320;51.498;6.556;2024-03-02T02:24:43;10.10;1.00
8565;DHT22;4320;51.498;6.556;2024-03-02T02:27:09;10.10;1.00
8565;DHT22;4320;51.498;6.556;2024-03-02T02:29:40;10.20;1.00
8565;DHT22;4320;51.498;6.556;2024-03-02T02:32:06;10.30;1.00
8565;DHT22;4320;51.498;6.556;2024-03-02T02:34:32;10.30;1.00
8565;DHT22;4320;51.498;6.556;2024-03-02T02:36:58;10.30;1.00
8565;DHT22;4320;51.498;6.556;2024-03-02T02:39:24;10.40;1.00
8565;DHT22;4320;51.498;6.556;2024-03-02T02:41:50;10.40;1.00
8565;DHT22;4320;51.498;6.556;2024-03-02T02:44:15;10.40;1.00
8565;DHT22;4320;51.498;6.556;2024-03-02T02:46:41;10.40;1.00
8565;DHT22;4320;51.498;6.556;2024-03-02T02:49:07;10.40;1.00
8565;DHT22;4320;51.498;6.556;2024-03-02T02:51:32;10.40;1.00
8565;DHT22;4320;51.498;6.556;2024-03-02T02:53:58;10.50;1.00
8565;DHT22;4320;51.498;6.556;2024-03-02T02:56:24;10.40;1.00
8565;DHT22;4320;51.498;6.556;2024-03-02T02:58:49;10.50;1.00
8565;DHT22;4320;51.498;6.556;2024-03-02T03:01:16;10.40;1.00
8565;DHT22;4320;51.498;6.556;2024-03-02T03:03:44;10.40;1.00
8565;DHT22;4320;51.498;6.556;2024-03-02T03:06:10;10.40;1.00
8565;DHT22;4320;51.498;6.556;2024-03-02T03:08:36;10.40;1.00
8565;DHT22;4320;51.498;6.556;2024-03-02T03:11:02;10.40;1.00
8565;DHT22;4320;51.498;6.556;2024-03-02T03:13:28;10.30;1.00
8565;DHT22;4320;51.498;6.556;2024-03-02T03:15:53;10.20;1.00
8565;DHT22;4320;51.498;6.556;2024-03-02T03:18:19;10.00;1.00
8565;DHT22;4320;51.498;6.556;2024-03-02T03:20:44;10.10;1.00
8565;DHT22;4320;51.498;6.556;2024-03-02T03:23:10;10.10;1.00
8565;DHT22;4320;51.498;6.556;2024-03-02T03:25:40;10.20;1.00
8565;DHT22;4320;51.498;6.556;2024-03-02T03:28:06;10.20;1.00
8565;DHT22;4320;51.498;6.556;2024-03-02T03:30:32;10.20;1.00
8565;DHT22;4320;51.498;6.556;2024-03-02T03:32:58;10.20;1.00
8565;DHT22;4320;51.498;6.556;2024-03-02T03:35:23;10.20;1.00
8565;DHT22;4320;51.498;6.556;2024-03-02T03:37:49;10.20;1.00
8565;DHT22;4320;51.498;6.556;2024-03-02T03:40:14;10.20;1.00
8565;DHT22;4320;51.498;6.556;2024-03-02T03:42:40;10.20;1.00
8565;DHT22;4320;51.498;6.556;2024-03-02T03:45:06;10.10;1.00
8565;DHT22;4320;51.498;6.556;2024-03-02T03:47:32;10.10;1.00
8565;DHT22;4320;51.498;6.556;2024-03-02T03:49:58;10.00;1.00
8565;DHT22;4320;51.498;6.556;2024-03-02T03:52:24;10.00;1.00
8565;DHT22;4320;51.498;6.556;2024-03-02T03:54:50;10.00;1.00
8565;DHT22;4320;51.498;6.556;2024-03-02T03:57:16;10.00;1.00
8565;DHT22;4320;51.498;6.556;2024-03-02T03:59:42;10.00;1.00
8565;DHT22;4320;51.498;6.556;2024-03-02T04:02:08;9.90;1.00
8565;DHT22;4320;51.498;6.556;2024-03-02T04:04:34;9.90;1.00
8565;DHT22;4320;51.498;6.556;2024-03-02T04:07:01;9.90;1.00
8565;DHT22;4320;51.498;6.556;2024-03-02T04:09:27;9.70;1.00
8565;DHT22;4320;51.498;6.556;2024-03-02T04:11:53;9.60;1.00
8565;DHT22;4320;51.498;6.556;2024-03-02T04:14:18;9.60;1.00
8565;DHT22;4320;51.498;6.556;2024-03-02T04:16:44;9.50;1.00
8565;DHT22;4320;51.498;6.556;2024-03-02T04:19:09;9.50;1.00
8565;DHT22;4320;51.498;6.556;2024-03-02T04:21:35;9.60;1.00
8565;DHT22;4320;51.498;6.556;2024-03-02T04:24:01;9.50;1.00
8565;DHT22;4320;51.498;6.556;2024-03-02T04:26:26;9.50;1.00
8565;DHT22;4320;51.498;6.556;2024-03-02T04:28:53;9.50;1.00
8565;DHT22;4320;51.498;6.556;2024-03-02T04:31:19;9.50;1.00
8565;DHT22;4320;51.498;6.556;2024-03-02T04:33:45;9.50;1.00
8565;DHT22;4320;51.498;6.556;2024-03-02T04:36:11;9.50;1.00
8565;DHT22;4320;51.498;6.556;2024-03-02T04:38:37;9.50;1.00
8565;DHT22;4320;51.498;6.556;2024-03-02T04:41:04;9.60;1.00
8565;DHT22;4320;51.498;6.556;2024-03-02T04:43:31;9.50;1.00
8565;DHT22;4320;51.498;6.556;2024-03-02T04:45:58;9.60;1.00
8565;DHT22;4320;51.498;6.556;2024-03-02T04:48:24;9.60;1.00
8565;DHT22;4320;51.498;6.556;2024-03-02T04:50:49;9.60;1.00
8565;DHT22;4320;51.498;6.556;2024-03-02T04:53:15;9.60;1.00
8565;DHT22;4320;51.498;6.556;2024-03-02T04:55:41;9.50;1.00
8565;DHT22;4320;51.498;6.556;2024-03-02T04:58:06;9.50;1.00
8565;DHT22;4320;51.498;6.556;2024-03-02T05:00:32;9.50;1.00
8565;DHT22;4320;51.498;6.556;2024-03-02T05:02:58;9.50;1.00
8565;DHT22;4320;51.498;6.556;2024-03-02T05:05:24;9.50;1.00
8565;DHT22;4320;51.498;6.556;2024-03-02T05:07:49;9.50;1.00
8565;DHT22;4320;51.498;6.556;2024-03-02T05:10:15;9.50;1.00
8565;DHT22;4320;51.498;6.556;2024-03-02T05:12:41;9.40;1.00
8565;DHT22;4320;51.498;6.556;2024-03-02T05:15:10;9.40;1.00
8565;DHT22;4320;51.498;6.556;2024-03-02T05:17:37;9.20;1.00
8565;DHT22;4320;51.498;6.556;2024-03-02T05:20:06;9.00;1.00
8565;DHT22;4320;51.498;6.556;2024-03-02T05:22:36;8.90;1.00
8565;DHT22;4320;51.498;6.556;2024-03-02T05:25:03;8.70;1.00
8565;DHT22;4320;51.498;6.556;2024-03-02T05:27:29;8.70;1.00
8565;DHT22;4320;51.498;6.556;2024-03-02T05:29:55;8.70;1.00
8565;DHT22;4320;51.498;6.556;2024-03-02T05:32:21;8.80;1.00
8565;DHT22;4320;51.498;6.556;2024-03-02T05:34:47;8.90;1.00
8565;DHT22;4320;51.498;6.556;2024-03-02T05:37:12;8.90;1.00
8565;DHT22;4320;51.498;6.556;2024-03-02T05:39:38;8.90;1.00
8565;DHT22;4320;51.498;6.556;2024-03-02T05:42:03;8.80;1.00
8565;DHT22;4320;51.498;6.556;2024-03-02T05:44:29;8.80;1.00
8565;DHT22;4320;51.498;6.556;2024-03-02T05:46:55;8.60;1.00
8565;DHT22;4320;51.498;6.556;2024-03-02T05:49:21;8.60;1.00
8565;DHT22;4320;51.498;6.556;2024-03-02T05:51:47;8.50;1.00
8565;DHT22;4320;51.498;6.556;2024-03-02T05:54:12;8.60;1.00
8565;DHT22;4320;51.498;6.556;2024-03-02T05:56:38;8.60;1.00
8565;DHT22;4320;51.498;6.556;2024-03-02T05:59:03;8.60;1.00
8565;DHT22;4320;51.498;6.556;2024-03-02T06:01:44;8.60;1.00
8565;DHT22;4320;51.498;6.556;2024-03-02T06:04:10;8.50;2.50
8565;DHT22;4320;51.498;6.556;2024-03-02T06:06:42;8.50;6.10
8565;DHT22;4320;51.498;6.556;2024-03-02T06:09:08;8.60;7.00
8565;DHT22;4320;51.498;6.556;2024-03-02T06:11:37;8.70;7.30
8565;DHT22;4320;51.498;6.556;2024-03-02T06:14:04;8.80;3.90
8565;DHT22;4320;51.498;6.556;2024-03-02T06:16:30;8.80;1.00
8565;DHT22;4320;51.498;6.556;2024-03-02T06:18:59;8.80;1.00
8565;DHT22;4320;51.498;6.556;2024-03-02T06:23:50;8.50;1.00
8565;DHT22;4320;51.498;6.556;2024-03-02T06:26:16;8.50;1.00
8565;DHT22;4320;51.498;6.556;2024-03-02T06:28:41;8.50;1.00
8565;DHT22;4320;51.498;6.556;2024-03-02T06:31:08;8.60;1.00
8565;DHT22;4320;51.498;6.556;2024-03-02T06:33:34;8.70;1.00
8565;DHT22;4320;51.498;6.556;2024-03-02T06:35:59;8.80;1.00
8565;DHT22;4320;51.498;6.556;2024-03-02T06:38:25;9.00;1.00
8565;DHT22;4320;51.498;6.556;2024-03-02T06:40:51;9.10;1.00
8565;DHT22;4320;51.498;6.556;2024-03-02T06:43:16;9.20;1.00
8565;DHT22;4320;51.498;6.556;2024-03-02T06:45:42;9.30;1.00
8565;DHT22;4320;51.498;6.556;2024-03-02T06:48:08;9.30;1.00
8565;DHT22;4320;51.498;6.556;2024-03-02T06:50:33;9.40;1.00
8565;DHT22;4320;51.498;6.556;2024-03-02T06:52:59;9.50;1.00
8565;DHT22;4320;51.498;6.556;2024-03-02T06:55:24;9.50;1.00
8565;DHT22;4320;51.498;6.556;2024-03-02T06:57:51;9.50;1.00
8565;DHT22;4320;51.498;6.556;2024-03-02T07:00:17;9.60;1.00
8565;DHT22;4320;51.498;6.556;2024-03-02T07:02:44;9.60;1.00
8565;DHT22;4320;51.498;6.556;2024-03-02T07:05:10;9.60;1.00
8565;DHT22;4320;51.498;6.556;2024-03-02T07:07:35;9.50;1.00
8565;DHT22;4320;51.498;6.556;2024-03-02T07:10:05;9.50;1.00
8565;DHT22;4320;51.498;6.556;2024-03-02T07:12:32;9.60;1.00
8565;DHT22;4320;51.498;6.556;2024-03-02T07:14:58;9.50;1.00
8565;DHT22;4320;51.498;6.556;2024-03-02T07:17:31;9.60;1.00
8565;DHT22;4320;51.498;6.556;2024-03-02T07:19:57;9.40;1.00
8565;DHT22;4320;51.498;6.556;2024-03-02T07:22:23;9.60;1.00
8565;DHT22;4320;51.498;6.556;2024-03-02T07:24:49;9.80;1.00
8565;DHT22;4320;51.498;6.556;2024-03-02T07:27:15;10.00;1.00
8565;DHT22;4320;51.498;6.556;2024-03-02T07:29:41;10.10;1.00
8565;DHT22;4320;51.498;6.556;2024-03-02T07:32:07;10.00;1.00
8565;DHT22;4320;51.498;6.556;2024-03-02T07:34:33;10.00;1.00
8565;DHT22;4320;51.498;6.556;2024-03-02T07:36:59;10.20;1.00
8565;DHT22;4320;51.498;6.556;2024-03-02T07:39:25;10.40;1.00
8565;DHT22;4320;51.498;6.556;2024-03-02T07:41:51;10.80;1.00
8565;DHT22;4320;51.498;6.556;2024-03-02T07:44:16;11.30;1.00
8565;DHT22;4320;51.498;6.556;2024-03-02T07:46:44;11.80;1.00
8565;DHT22;4320;51.498;6.556;2024-03-02T07:49:12;11.80;1.00
8565;DHT22;4320;51.498;6.556;2024-03-02T07:51:39;11.70;1.00
8565;DHT22;4320;51.498;6.556;2024-03-02T07:54:05;12.10;1.00
8565;DHT22;4320;51.498;6.556;2024-03-02T07:56:31;11.80;1.00
8565;DHT22;4320;51.498;6.556;2024-03-02T07:58:57;11.60;1.00
8565;DHT22;4320;51.498;6.556;2024-03-02T08:01:27;11.90;1.00
8565;DHT22;4320;51.498;6.556;2024-03-02T08:03:53;13.70;1.00
8565;DHT22;4320;51.498;6.556;2024-03-02T08:06:18;15.40;1.00
8565;DHT22;4320;51.498;6.556;2024-03-02T08:08:46;15.70;1.00
8565;DHT22;4320;51.498;6.556;2024-03-02T08:11:12;16.00;1.00
8565;DHT22;4320;51.498;6.556;2024-03-02T08:13:38;16.30;1.00
8565;DHT22;4320;51.498;6.556;2024-03-02T08:16:04;16.80;1.00
8565;DHT22;4320;51.498;6.556;2024-03-02T08:18:32;16.70;1.00
8565;DHT22;4320;51.498;6.556;2024-03-02T08:20:58;16.70;1.00
8565;DHT22;4320;51.498;6.556;2024-03-02T08:23:23;16.40;1.00
8565;DHT22;4320;51.498;6.556;2024-03-02T08:25:49;17.10;1.00
8565;DHT22;4320;51.498;6.556;2024-03-02T08:28:15;17.40;1.00
8565;DHT22;4320;51.498;6.556;2024-03-02T08:30:40;16.60;1.00
8565;DHT22;4320;51.498;6.556;2024-03-02T08:33:06;15.80;1.00
8565;DHT22;4320;51.498;6.556;2024-03-02T08:35:31;16.20;1.00
8565;DHT22;4320;51.498;6.556;2024-03-02T08:38:02;17.10;1.00
8565;DHT22;4320;51.498;6.556;2024-03-02T08:40:28;17.50;1.00
8565;DHT22;4320;51.498;6.556;2024-03-02T08:42:54;18.00;1.00
8565;DHT22;4320;51.498;6.556;2024-03-02T08:45:19;17.80;1.00
8565;DHT22;4320;51.498;6.556;2024-03-02T08:47:46;19.00;1.00
8565;DHT22;4320;51.498;6.556;2024-03-02T08:50:12;19.50;1.00
8565;DHT22;4320;51.498;6.556;2024-03-02T08:52:37;19.30;1.00
8565;DHT22;4320;51.498;6.556;2024-03-02T08:55:03;19.20;1.00
8565;DHT22;4320;51.498;6.556;2024-03-02T08:57:29;18.00;1.00
8565;DHT22;4320;51.498;6.556;2024-03-02T08:59:55;17.40;1.00
8565;DHT22;4320;51.498;6.556;2024-03-02T09:02:20;16.70;1.00
8565;DHT22;4320;51.498;6.556;2024-03-02T09:04:46;16.20;1.00
8565;DHT22;4320;51.498;6.556;2024-03-02T09:07:12;16.40;1.00
8565;DHT22;4320;51.498;6.556;2024-03-02T09:09:37;16.60;1.00
8565;DHT22;4320;51.498;6.556;2024-03-02T09:12:05;17.30;1.00
8565;DHT22;4320;51.498;6.556;2024-03-02T09:14:31;17.50;1.00
8565;DHT22;4320;51.498;6.556;2024-03-02T09:16:56;18.50;1.00
8565;DHT22;4320;51.498;6.556;2024-03-02T09:19:22;19.20;1.00
8565;DHT22;4320;51.498;6.556;2024-03-02T09:21:48;19.40;1.00
8565;DHT22;4320;51.498;6.556;2024-03-02T09:24:13;19.50;1.00
8565;DHT22;4320;51.498;6.556;2024-03-02T09:26:39;19.30;1.00
8565;DHT22;4320;51.498;6.556;2024-03-02T09:29:04;19.40;1.00
8565;DHT22;4320;51.498;6.556;2024-03-02T09:31:30;18.10;1.00
8565;DHT22;4320;51.498;6.556;2024-03-02T09:33:56;17.80;1.00
8565;DHT22;4320;51.498;6.556;2024-03-02T09:36:22;17.80;1.00
8565;DHT22;4320;51.498;6.556;2024-03-02T09:38:48;17.10;1.00
8565;DHT22;4320;51.498;6.556;2024-03-02T09:41:17;16.90;1.00
8565;DHT22;4320;51.498;6.556;2024-03-02T09:43:42;16.90;1.00
8565;DHT22;4320;51.498;6.556;2024-03-02T09:46:09;17.50;1.00
8565;DHT22;4320;51.498;6.556;2024-03-02T09:48:35;18.10;1.00
8565;DHT22;4320;51.498;6.556;2024-03-02T09:51:01;18.40;1.00
8565;DHT22;4320;51.498;6.556;2024-03-02T09:53:33;18.40;1.00
8565;DHT22;4320;51.498;6.556;2024-03-02T09:55:59;18.60;1.00
8565;DHT22;4320;51.498;6.556;2024-03-02T09:58:25;18.60;1.00
8565;DHT22;4320;51.498;6.556;2024-03-02T10:00:51;18.50;1.00
8565;DHT22;4320;51.498;6.556;2024-03-02T10:03:18;18.00;1.00
8565;DHT22;4320;51.498;6.556;2024-03-02T10:05:44;17.60;1.00
8565;DHT22;4320;51.498;6.556;2024-03-02T10:08:10;18.00;1.00
8565;DHT22;4320;51.498;6.556;2024-03-02T10:10:37;18.10;1.00
8565;DHT22;4320;51.498;6.556;2024-03-02T10:13:08;17.50;1.00
8565;DHT22;4320;51.498;6.556;2024-03-02T10:15:34;17.20;1.00
8565;DHT22;4320;51.498;6.556;2024-03-02T10:18:00;17.60;1.00
8565;DHT22;4320;51.498;6.556;2024-03-02T10:20:26;17.30;1.00
8565;DHT22;4320;51.498;6.556;2024-03-02T10:25:50;17.50;1.00
8565;DHT22;4320;51.498;6.556;2024-03-02T10:28:16;17.50;1.00
8565;DHT22;4320;51.498;6.556;2024-03-02T10:30:41;16.40;1.00
8565;DHT22;4320;51.498;6.556;2024-03-02T10:33:07;16.20;1.00
8565;DHT22;4320;51.498;6.556;2024-03-02T10:35:33;15.50;1.00
8565;DHT22;4320;51.498;6.556;2024-03-02T10:38:03;15.70;1.00
8565;DHT22;4320;51.498;6.556;2024-03-02T10:40:29;15.50;1.00
8565;DHT22;4320;51.498;6.556;2024-03-02T10:42:55;14.70;1.00
8565;DHT22;4320;51.498;6.556;2024-03-02T10:45:22;14.80;1.00
8565;DHT22;4320;51.498;6.556;2024-03-02T10:47:49;15.10;1.00
8565;DHT22;4320;51.498;6.556;2024-03-02T10:50:15;15.70;1.00
8565;DHT22;4320;51.498;6.556;2024-03-02T10:52:41;15.80;1.00
8565;DHT22;4320;51.498;6.556;2024-03-02T10:55:08;15.80;1.00
8565;DHT22;4320;51.498;6.556;2024-03-02T10:57:50;15.90;1.00
8565;DHT22;4320;51.498;6.556;2024-03-02T11:00:18;16.20;1.00
8565;DHT22;4320;51.498;6.556;2024-03-02T11:02:56;16.30;1.00
8565;DHT22;4320;51.498;6.556;2024-03-02T11:05:31;16.40;1.00
8565;DHT22;4320;51.498;6.556;2024-03-02T11:08:06;16.70;1.00
8565;DHT22;4320;51.498;6.556;2024-03-02T11:10:41;16.40;1.00
8565;DHT22;4320;51.498;6.556;2024-03-02T11:13:12;16.30;1.00
8565;DHT22;4320;51.498;6.556;2024-03-02T11:15:40;16.00;1.00
8565;DHT22;4320;51.498;6.556;2024-03-02T11:18:09;16.20;1.00
8565;DHT22;4320;51.498;6.556;2024-03-02T11:20:37;16.80;1.00
8565;DHT22;4320;51.498;6.556;2024-03-02T11:23:07;16.70;1.00
8565;DHT22;4320;51.498;6.556;2024-03-02T11:25:34;16.60;1.00
8565;DHT22;4320;51.498;6.556;2024-03-02T11:28:04;16.50;1.00
8565;DHT22;4320;51.498;6.556;2024-03-02T11:33:02;16.20;1.00
8565;DHT22;4320;51.498;6.556;2024-03-02T11:35:37;16.20;1.00
8565;DHT22;4320;51.498;6.556;2024-03-02T11:38:04;16.80;1.00
8565;DHT22;4320;51.498;6.556;2024-03-02T11:40:30;15.70;1.00
8565;DHT22;4320;51.498;6.556;2024-03-02T11:43:00;16.10;1.00
8565;DHT22;4320;51.498;6.556;2024-03-02T11:45:29;16.00;1.00
8565;DHT22;4320;51.498;6.556;2024-03-02T11:47:57;15.70;1.00
8565;DHT22;4320;51.498;6.556;2024-03-02T11:50:39;16.00;1.00
8565;DHT22;4320;51.498;6.556;2024-03-02T11:53:07;16.40;1.00
8565;DHT22;4320;51.498;6.556;2024-03-02T11:55:35;16.30;1.00
8565;DHT22;4320;51.498;6.556;2024-03-02T11:58:05;16.20;1.00
8565;DHT22;4320;51.498;6.556;2024-03-02T12:00:30;15.80;1.00
8565;DHT22;4320;51.498;6.556;2024-03-02T12:03:01;16.00;1.00
8565;DHT22;4320;51.498;6.556;2024-03-02T12:05:28;16.10;1.00
8565;DHT22;4320;51.498;6.556;2024-03-02T12:08:02;15.70;1.00
8565;DHT22;4320;51.498;6.556;2024-03-02T12:10:29;15.90;1.00
8565;DHT22;4320;51.498;6.556;2024-03-02T12:13:04;15.30;1.00
8565;DHT22;4320;51.498;6.556;2024-03-02T12:15:31;15.30;1.00
8565;DHT22;4320;51.498;6.556;2024-03-02T12:17:59;15.10;1.00
8565;DHT22;4320;51.498;6.556;2024-03-02T12:20:26;15.30;1.00
8565;DHT22;4320;51.498;6.556;2024-03-02T12:22:53;15.30;1.00
8565;DHT22;4320;51.498;6.556;2024-03-02T12:25:20;15.20;1.00
8565;DHT22;4320;51.498;6.556;2024-03-02T12:27:50;15.20;1.00
8565;DHT22;4320;51.498;6.556;2024-03-02T12:30:17;15.20;1.00
8565;DHT22;4320;51.498;6.556;2024-03-02T12:32:44;15.30;1.00
8565;DHT22;4320;51.498;6.556;2024-03-02T12:35:10;15.40;1.00
8565;DHT22;4320;51.498;6.556;2024-03-02T12:37:49;14.80;1.00
8565;DHT22;4320;51.498;6.556;2024-03-02T12:40:16;14.60;1.00
8565;DHT22;4320;51.498;6.556;2024-03-02T12:42:46;14.80;1.00
8565;DHT22;4320;51.498;6.556;2024-03-02T12:45:12;15.10;1.00
8565;DHT22;4320;51.498;6.556;2024-03-02T12:47:40;15.30;1.00
8565;DHT22;4320;51.498;6.556;2024-03-02T12:50:06;15.30;1.00
8565;DHT22;4320;51.498;6.556;2024-03-02T12:52:32;15.20;1.00
8565;DHT22;4320;51.498;6.556;2024-03-02T12:55:02;15.20;1.00
8565;DHT22;4320;51.498;6.556;2024-03-02T12:57:30;14.80;1.00
8565;DHT22;4320;51.498;6.556;2024-03-02T13:02:30;14.80;1.00
8565;DHT22;4320;51.498;6.556;2024-03-02T13:04:58;14.90;1.00
8565;DHT22;4320;51.498;6.556;2024-03-02T13:07:24;14.80;1.00
8565;DHT22;4320;51.498;6.556;2024-03-02T13:09:51;15.00;1.00
8565;DHT22;4320;51.498;6.556;2024-03-02T13:12:17;15.20;1.00
8565;DHT22;4320;51.498;6.556;2024-03-02T13:14:44;15.30;1.00
8565;DHT22;4320;51.498;6.556;2024-03-02T13:17:10;15.50;1.00
8565;DHT22;4320;51.498;6.556;2024-03-02T13:19:35;15.60;1.00
8565;DHT22;4320;51.498;6.556;2024-03-02T13:22:01;15.70;1.00
8565;DHT22;4320;51.498;6.556;2024-03-02T13:24:30;15.60;1.00
8565;DHT22;4320;51.498;6.556;2024-03-02T13:26:56;15.60;1.00
8565;DHT22;4320;51.498;6.556;2024-03-02T13:29:23;15.70;1.00
8565;DHT22;4320;51.498;6.556;2024-03-02T13:31:49;15.70;1.00
8565;DHT22;4320;51.498;6.556;2024-03-02T13:34:15;15.20;1.00
8565;DHT22;4320;51.498;6.556;2024-03-02T13:36:41;15.10;1.00
8565;DHT22;4320;51.498;6.556;2024-03-02T13:39:06;15.60;1.00
8565;DHT22;4320;51.498;6.556;2024-03-02T13:41:35;15.80;1.00
8565;DHT22;4320;51.498;6.556;2024-03-02T13:44:01;16.00;1.00
8565;DHT22;4320;51.498;6.556;2024-03-02T13:46:27;15.20;1.00
8565;DHT22;4320;51.498;6.556;2024-03-02T13:48:54;15.10;1.00
8565;DHT22;4320;51.498;6.556;2024-03-02T13:51:20;15.00;1.00
8565;DHT22;4320;51.498;6.556;2024-03-02T13:53:45;15.40;1.00
8565;DHT22;4320;51.498;6.556;2024-03-02T13:56:11;15.50;1.00
8565;DHT22;4320;51.498;6.556;2024-03-02T13:58:37;15.50;1.00
8565;DHT22;4320;51.498;6.556;2024-03-02T14:01:03;15.50;1.00
8565;DHT22;4320;51.498;6.556;2024-03-02T14:03:30;15.50;1.00
8565;DHT22;4320;51.498;6.556;2024-03-02T14:05:56;15.30;1.00
8565;DHT22;4320;51.498;6.556;2024-03-02T14:08:22;15.20;1.00
8565;DHT22;4320;51.498;6.556;2024-03-02T14:10:48;15.00;1.00
8565;DHT22;4320;51.498;6.556;2024-03-02T14:13:14;14.90;1.00
8565;DHT22;4320;51.498;6.556;2024-03-02T14:15:41;15.20;1.00
8565;DHT22;4320;51.498;6.556;2024-03-02T14:18:07;14.80;1.00
8565;DHT22;4320;51.498;6.556;2024-03-02T14:20:35;15.00;1.00
8565;DHT22;4320;51.498;6.556;2024-03-02T14:23:01;15.00;1.00
8565;DHT22;4320;51.498;6.556;2024-03-02T14:25:28;14.80;1.00
8565;DHT22;4320;51.498;6.556;2024-03-02T14:27:57;14.60;1.00
8565;DHT22;4320;51.498;6.556;2024-03-02T14:30:23;14.70;1.00
8565;DHT22;4320;51.498;6.556;2024-03-02T14:32:49;14.70;1.00
8565;DHT22;4320;51.498;6.556;2024-03-02T14:35:14;14.60;1.00
8565;DHT22;4320;51.498;6.556;2024-03-02T14:37:40;14.50;1.00
8565;DHT22;4320;51.498;6.556;2024-03-02T14:40:07;14.70;1.00
8565;DHT22;4320;51.498;6.556;2024-03-02T14:42:35;14.70;1.00
8565;DHT22;4320;51.498;6.556;2024-03-02T14:45:01;14.60;1.00
8565;DHT22;4320;51.498;6.556;2024-03-02T14:47:29;14.50;1.00
8565;DHT22;4320;51.498;6.556;2024-03-02T14:49:56;14.80;1.00
8565;DHT22;4320;51.498;6.556;2024-03-02T14:52:22;14.80;1.00
8565;DHT22;4320;51.498;6.556;2024-03-02T14:54:47;14.80;1.00
8565;DHT22;4320;51.498;6.556;2024-03-02T14:57:13;14.60;1.00
8565;DHT22;4320;51.498;6.556;2024-03-02T14:59:39;14.40;1.00
8565;DHT22;4320;51.498;6.556;2024-03-02T15:02:05;14.40;1.00
8565;DHT22;4320;51.498;6.556;2024-03-02T15:04:31;14.40;1.00
8565;DHT22;4320;51.498;6.556;2024-03-02T15:06:57;14.70;1.00
8565;DHT22;4320;51.498;6.556;2024-03-02T15:09:22;14.80;1.00
8565;DHT22;4320;51.498;6.556;2024-03-02T15:11:48;14.40;1.00
8565;DHT22;4320;51.498;6.556;2024-03-02T15:14:13;14.50;1.00
8565;DHT22;4320;51.498;6.556;2024-03-02T15:16:39;14.50;1.00
8565;DHT22;4320;51.498;6.556;2024-03-02T15:19:05;14.70;1.00
8565;DHT22;4320;51.498;6.556;2024-03-02T15:21:31;14.80;1.00
8565;DHT22;4320;51.498;6.556;2024-03-02T15:23:56;14.80;1.00
8565;DHT22;4320;51.498;6.556;2024-03-02T15:26:22;14.50;1.00
8565;DHT22;4320;51.498;6.556;2024-03-02T15:28:47;14.40;1.00
8565;DHT22;4320;51.498;6.556;2024-03-02T15:31:13;14.10;1.00
8565;DHT22;4320;51.498;6.556;2024-03-02T15:33:38;14.30;1.00
8565;DHT22;4320;51.498;6.556;2024-03-02T15:36:04;14.40;1.00
8565;DHT22;4320;51.498;6.556;2024-03-02T15:38:30;14.50;1.00
8565;DHT22;4320;51.498;6.556;2024-03-02T15:40:57;14.70;1.00
8565;DHT22;4320;51.498;6.556;2024-03-02T15:43:23;14.70;1.00
8565;DHT22;4320;51.498;6.556;2024-03-02T15:45:49;14.60;1.00
8565;DHT22;4320;51.498;6.556;2024-03-02T15:48:15;14.70;1.00
8565;DHT22;4320;51.498;6.556;2024-03-02T15:50:41;14.70;1.00
8565;DHT22;4320;51.498;6.556;2024-03-02T15:53:06;14.60;1.00
8565;DHT22;4320;51.498;6.556;2024-03-02T15:55:33;14.60;1.00
8565;DHT22;4320;51.498;6.556;2024-03-02T15:58:02;14.60;1.00
8565;DHT22;4320;51.498;6.556;2024-03-02T16:00:30;14.80;1.00
8565;DHT22;4320;51.498;6.556;2024-03-02T16:02:56;14.60;1.00
8565;DHT22;4320;51.498;6.556;2024-03-02T16:05:22;14.50;1.00
8565;DHT22;4320;51.498;6.556;2024-03-02T16:07:47;14.50;1.00
8565;DHT22;4320;51.498;6.556;2024-03-02T16:10:13;14.40;1.00
8565;DHT22;4320;51.498;6.556;2024-03-02T16:12:39;14.30;1.00
8565;DHT22;4320;51.498;6.556;2024-03-02T16:15:05;14.40;1.00
8565;DHT22;4320;51.498;6.556;2024-03-02T16:17:30;14.30;1.00
8565;DHT22;4320;51.498;6.556;2024-03-02T16:19:56;14.40;1.00
8565;DHT22;4320;51.498;6.556;2024-03-02T16:22:23;14.50;1.00
8565;DHT22;4320;51.498;6.556;2024-03-02T16:24:50;14.50;1.00
8565;DHT22;4320;51.498;6.556;2024-03-02T16:27:15;14.40;1.00
8565;DHT22;4320;51.498;6.556;2024-03-02T16:29:43;14.40;1.00